Time;durP1;ratioP1;P1;durP2;ratioP2;P2;SDS_P1;SDS_P2;PMS_P1;PMS_P2;Temp;Humidity;BMP_temperature;BMP_pressure;BME280_temperature;BME280_humidity;BME280_pressure;Samples;Min_cycle;Max_cycle;Signal;HPM_P1;HPM_P2
2024/03/03 00:00:13;;;;;;;21.60;10.20;;;;;;;2.12;100.00;100572.79;87294;272;137996;-75
2024/03/03 00:02:15;;;;;;;20.20;10.30;;;;;;;2.10;100.00;100570.14;87431;267;22575;-75
2024/03/03 00:04:17;;;;;;;17.20;10.10;;;;;;;2.06;100.00;100571.34;87464;271;136654;-72
2024/03/03 00:06:18;;;;;;;19.40;10.60;;;;;;;2.02;100.00;100567.36;87696;267;25240;-75
2024/03/03 00:08:23;;;;;;;28.20;11.80;;;;;;;1.98;100.00;100569.94;87671;271;136535;-79
2024/03/03 00:10:25;;;;;;;27.20;9.60;;;;;;;1.99;100.00;100567.60;87709;271;22600;-73
2024/03/03 00:12:27;;;;;;;15.20;10.70;;;;;;;2.00;100.00;100562.43;87667;271;136860;-74
2024/03/03 00:14:28;;;;;;;20.00;10.80;;;;;;;2.02;100.00;100563.79;87644;272;22648;-75
2024/03/03 00:16:33;;;;;;;22.10;11.10;;;;;;;2.04;100.00;100562.27;87605;274;136931;-77
2024/03/03 00:18:38;;;;;;;15.80;9.10;;;;;;;2.06;100.00;100560.16;87768;271;23380;-74
2024/03/03 00:20:40;;;;;;;15.50;9.70;;;;;;;2.06;100.00;100558.89;87657;263;137203;-77
2024/03/03 00:22:42;;;;;;;18.40;11.60;;;;;;;2.07;100.00;100558.52;87837;272;22548;-74
2024/03/03 00:24:44;;;;;;;19.00;11.30;;;;;;;2.03;100.00;100555.88;87531;272;136411;-77
2024/03/03 00:26:46;;;;;;;21.60;11.60;;;;;;;1.99;100.00;100557.05;87563;271;23359;-79
2024/03/03 00:28:48;;;;;;;17.80;11.40;;;;;;;1.96;100.00;100557.51;87729;272;136096;-78
2024/03/03 00:30:50;;;;;;;19.70;10.70;;;;;;;1.93;100.00;100553.34;87780;273;24051;-74
2024/03/03 00:32:52;;;;;;;17.90;10.90;;;;;;;1.93;100.00;100557.54;87651;271;137470;-74
2024/03/03 00:34:55;;;;;;;22.80;11.80;;;;;;;1.93;100.00;100554.20;87930;279;22510;-72
2024/03/03 00:36:57;;;;;;;20.80;11.10;;;;;;;1.93;100.00;100555.05;87538;269;136781;-73
2024/03/03 00:38:59;;;;;;;24.60;12.40;;;;;;;1.96;100.00;100554.35;87582;272;22540;-75
2024/03/03 00:41:02;;;;;;;19.40;10.40;;;;;;;1.96;100.00;100556.83;87374;279;137014;-77
2024/03/03 00:43:04;;;;;;;28.10;9.90;;;;;;;1.94;100.00;100551.30;87721;271;22579;-75
2024/03/03 00:45:06;;;;;;;20.50;11.00;;;;;;;1.95;100.00;100552.63;87575;271;137493;-75
2024/03/03 00:47:08;;;;;;;19.80;10.40;;;;;;;1.94;100.00;100550.61;87849;272;22522;-75
2024/03/03 00:49:10;;;;;;;28.90;11.40;;;;;;;1.91;100.00;100552.82;87420;279;137214;-76
2024/03/03 00:51:11;;;;;;;26.70;11.60;;;;;;;1.87;100.00;100551.05;87443;269;23533;-73
2024/03/03 00:53:13;;;;;;;22.00;12.10;;;;;;;1.83;100.00;100547.86;87366;273;136251;-74
2024/03/03 00:55:15;;;;;;;24.00;11.50;;;;;;;1.83;100.00;100547.48;87531;271;22557;-76
2024/03/03 00:57:18;;;;;;;24.50;11.20;;;;;;;1.86;100.00;100550.98;87413;272;136781;-78
2024/03/03 00:59:20;;;;;;;24.90;11.10;;;;;;;1.87;100.00;100549.26;87520;272;22543;-74
2024/03/03 01:01:21;;;;;;;23.30;10.50;;;;;;;1.89;100.00;100550.56;87489;269;137958;-76
2024/03/03 01:03:23;;;;;;;19.20;9.90;;;;;;;1.92;100.00;100549.95;87463;269;25117;-76
2024/03/03 01:05:25;;;;;;;24.30;10.80;;;;;;;1.95;100.00;100549.53;87448;278;136772;-74
2024/03/03 01:07:27;;;;;;;18.30;10.30;;;;;;;1.98;100.00;100551.67;87544;271;25121;-76
2024/03/03 01:09:29;;;;;;;19.70;11.60;;;;;;;1.99;100.00;100550.05;87398;272;136257;-77
2024/03/03 01:11:31;;;;;;;29.10;12.10;;;;;;;1.96;100.00;100550.48;87521;280;22585;-74
2024/03/03 01:13:32;;;;;;;20.50;11.10;;;;;;;1.94;100.00;100552.03;87694;271;136354;-77
2024/03/03 01:15:34;;;;;;;16.00;11.00;;;;;;;1.92;100.00;100555.33;88029;271;23261;-73
2024/03/03 01:17:36;;;;;;;16.70;11.00;;;;;;;1.93;100.00;100552.98;87663;271;137118;-75
2024/03/03 01:19:38;;;;;;;24.90;10.90;;;;;;;1.97;100.00;100547.22;87746;271;25159;-76
2024/03/03 01:21:40;;;;;;;24.10;12.20;;;;;;;2.00;100.00;100546.80;87620;278;137145;-79
2024/03/03 01:23:42;;;;;;;19.10;10.80;;;;;;;2.05;100.00;100551.70;87542;268;24170;-76
2024/03/03 01:25:44;;;;;;;21.10;11.60;;;;;;;2.07;100.00;100547.77;87298;280;138290;-75
2024/03/03 01:27:46;;;;;;;21.90;10.90;;;;;;;2.11;100.00;100547.77;87459;273;22518;-73
2024/03/03 01:29:48;;;;;;;17.00;11.00;;;;;;;2.13;100.00;100551.30;87590;272;137724;-74
2024/03/03 01:31:51;;;;;;;19.00;11.50;;;;;;;2.12;100.00;100551.73;87450;268;22559;-76
2024/03/03 01:33:53;;;;;;;17.60;11.10;;;;;;;2.10;100.00;100549.16;87505;275;136346;-74
2024/03/03 01:35:55;;;;;;;22.20;11.10;;;;;;;2.06;100.00;100551.19;87483;277;22549;-74
2024/03/03 01:37:57;;;;;;;21.50;11.00;;;;;;;2.05;100.00;100556.21;87431;269;135927;-76
2024/03/03 01:39:58;;;;;;;20.50;10.40;;;;;;;2.07;100.00;100554.68;87482;277;22688;-75
2024/03/03 01:42:00;;;;;;;26.30;11.10;;;;;;;2.09;100.00;100554.27;87615;278;136973;-75
2024/03/03 01:44:02;;;;;;;18.40;11.40;;;;;;;2.12;100.00;100553.36;87666;279;24248;-76
2024/03/03 01:46:04;;;;;;;18.80;10.90;;;;;;;2.14;100.00;100553.87;87646;268;22536;-75
2024/03/03 01:48:07;;;;;;;18.70;10.10;;;;;;;2.17;100.00;100557.89;87650;270;136942;-73
2024/03/03 01:50:10;;;;;;;23.80;10.50;;;;;;;2.18;100.00;100554.42;87282;278;22579;-77
2024/03/03 01:52:12;;;;;;;19.40;10.60;;;;;;;2.19;100.00;100554.04;87499;275;136569;-73
2024/03/03 01:54:14;;;;;;;22.10;11.40;;;;;;;2.17;100.00;100554.86;87687;267;22555;-74
2024/03/03 01:56:23;;;;;;;16.50;10.80;;;;;;;2.14;100.00;100555.22;87544;280;136651;-76
2024/03/03 01:58:27;;;;;;;19.50;11.30;;;;;;;2.13;100.00;100548.68;87667;279;24017;-74
2024/03/03 02:00:33;;;;;;;16.40;10.10;;;;;;;2.17;100.00;100547.91;87614;269;136693;-76
2024/03/03 02:02:39;;;;;;;16.80;9.50;;;;;;;2.22;100.00;100550.43;87752;277;22602;-74
2024/03/03 02:04:41;;;;;;;19.20;10.50;;;;;;;2.26;100.00;100550.74;87545;271;136988;-72
2024/03/03 02:06:43;;;;;;;13.30;10.00;;;;;;;2.30;100.00;100550.59;87604;270;23656;-74
2024/03/03 02:08:46;;;;;;;19.90;10.50;;;;;;;2.32;100.00;100544.45;87544;271;137754;-74
2024/03/03 02:10:48;;;;;;;22.90;10.30;;;;;;;2.35;100.00;100539.72;87854;263;22559;-75
2024/03/03 02:12:51;;;;;;;23.60;11.70;;;;;;;2.36;100.00;100540.48;87793;275;136405;-73
2024/03/03 02:14:53;;;;;;;15.00;10.10;;;;;;;2.36;100.00;100539.48;87604;267;22530;-75
2024/03/03 02:16:55;;;;;;;19.80;10.30;;;;;;;2.36;100.00;100539.81;87547;272;136204;-76
2024/03/03 02:18:57;;;;;;;20.80;11.50;;;;;;;2.37;100.00;100543.54;87642;277;25152;-73
2024/03/03 02:20:59;;;;;;;18.20;10.10;;;;;;;2.40;100.00;100549.29;86789;273;136507;-75
2024/03/03 02:23:01;;;;;;;28.10;12.00;;;;;;;2.43;100.00;100549.14;87503;272;24254;-74
2024/03/03 02:25:04;;;;;;;27.00;12.00;;;;;;;2.46;100.00;100553.08;87612;272;137629;-75
2024/03/03 02:27:06;;;;;;;23.30;10.60;;;;;;;2.49;100.00;100547.77;87071;271;24010;-78
2024/03/03 02:29:09;;;;;;;14.20;9.60;;;;;;;2.54;100.00;100552.48;86954;272;137550;-75
2024/03/03 02:31:11;;;;;;;14.80;9.70;;;;;;;2.56;100.00;100551.42;87537;278;22881;-75
2024/03/03 02:33:12;;;;;;;17.30;10.80;;;;;;;2.56;100.00;100547.38;87551;270;137010;-76
2024/03/03 02:35:14;;;;;;;14.80;9.40;;;;;;;2.55;100.00;100548.15;87644;274;22562;-84
2024/03/03 02:37:16;;;;;;;18.80;11.80;;;;;;;2.52;100.00;100553.48;87420;267;135639;-74
2024/03/03 02:39:18;;;;;;;18.80;11.30;;;;;;;2.47;100.00;100552.66;87636;266;22533;-74
2024/03/03 02:41:20;;;;;;;28.40;11.50;;;;;;;2.45;100.00;100553.90;87490;274;136231;-73
2024/03/03 02:43:22;;;;;;;19.60;10.40;;;;;;;2.43;100.00;100547.57;87365;280;22566;-74
2024/03/03 02:45:24;;;;;;;20.50;10.40;;;;;;;2.44;100.00;100545.72;87484;272;137156;-73
2024/03/03 02:47:26;;;;;;;18.40;11.00;;;;;;;2.47;100.00;100550.03;87556;279;22655;-73
2024/03/03 02:49:27;;;;;;;17.80;10.80;;;;;;;2.49;100.00;100549.14;87427;271;136775;-74
2024/03/03 02:51:29;;;;;;;17.90;9.80;;;;;;;2.54;100.00;100553.84;87583;271;22561;-75
2024/03/03 02:53:31;;;;;;;19.10;10.00;;;;;;;2.59;100.00;100555.23;87308;280;138397;-72
2024/03/03 02:55:33;;;;;;;18.30;9.80;;;;;;;2.62;100.00;100553.23;87561;272;22564;-70
2024/03/03 02:57:34;;;;;;;17.60;9.00;;;;;;;2.60;100.00;100556.48;87293;271;136442;-71
2024/03/03 02:59:37;;;;;;;16.30;10.30;;;;;;;2.56;100.00;100559.52;87345;280;26329;-75
2024/03/03 03:01:39;;;;;;;19.40;10.10;;;;;;;2.51;100.00;100557.73;87479;278;136227;-73
2024/03/03 03:03:42;;;;;;;18.20;10.10;;;;;;;2.49;100.00;100561.95;87673;268;22638;-72
2024/03/03 03:05:43;;;;;;;18.70;10.50;;;;;;;2.46;100.00;100561.04;87333;271;137893;-72
2024/03/03 03:07:45;;;;;;;27.50;10.40;;;;;;;2.45;100.00;100558.08;87560;271;23010;-71
2024/03/03 03:09:47;;;;;;;12.80;8.70;;;;;;;2.48;100.00;100563.11;86898;275;138655;-73
2024/03/03 03:11:49;;;;;;;15.90;8.70;;;;;;;2.49;100.00;100566.69;87532;278;22531;-73
2024/03/03 03:13:52;;;;;;;18.10;9.30;;;;;;;2.49;100.00;100562.48;87325;273;136731;-84
2024/03/03 03:15:54;;;;;;;12.00;8.50;;;;;;;2.50;100.00;100563.13;87411;273;23737;-71
2024/03/03 03:17:56;;;;;;;19.80;9.70;;;;;;;2.47;100.00;100560.55;87426;287;137481;-71
2024/03/03 03:19:59;;;;;;;14.60;9.40;;;;;;;2.42;100.00;100561.38;87336;275;22564;-74
2024/03/03 03:22:01;;;;;;;17.50;8.80;;;;;;;2.37;100.00;100558.27;87352;268;137198;-72
2024/03/03 03:24:03;;;;;;;17.70;8.90;;;;;;;2.33;100.00;100556.35;87506;278;136533;-72
2024/03/03 03:26:04;;;;;;;18.00;9.20;;;;;;;2.32;100.00;100558.52;87542;267;24022;-77
2024/03/03 03:28:06;;;;;;;17.40;9.00;;;;;;;2.35;100.00;100557.93;87452;276;138004;-71
2024/03/03 03:30:08;;;;;;;18.10;10.00;;;;;;;2.37;100.00;100562.52;87300;280;24223;-71
2024/03/03 03:32:11;;;;;;;16.50;8.70;;;;;;;2.37;100.00;100559.71;87272;279;137450;-74
2024/03/03 03:34:12;;;;;;;19.80;10.20;;;;;;;2.38;100.00;100562.59;86979;275;757450;-71
2024/03/03 03:36:14;;;;;;;17.40;9.70;;;;;;;2.34;100.00;100558.86;87178;268;136454;-71
2024/03/03 03:38:16;;;;;;;14.50;9.40;;;;;;;2.30;100.00;100558.02;87232;267;22564;-72
2024/03/03 03:40:18;;;;;;;20.10;9.40;;;;;;;2.27;100.00;100560.18;87479;268;136686;-72
2024/03/03 03:42:20;;;;;;;16.10;8.20;;;;;;;2.24;100.00;100556.20;87534;271;25136;-72
2024/03/03 03:44:21;;;;;;;14.30;9.30;;;;;;;2.24;100.00;100553.58;87439;271;137768;-72
2024/03/03 03:46:23;;;;;;;17.50;9.60;;;;;;;2.26;100.00;100557.43;87539;272;22586;-72
2024/03/03 03:48:25;;;;;;;15.60;8.40;;;;;;;2.28;100.00;100557.80;87449;279;138811;-72
2024/03/03 03:50:27;;;;;;;16.60;9.20;;;;;;;2.29;100.00;100557.17;87568;278;25339;-70
2024/03/03 03:52:29;;;;;;;13.80;9.10;;;;;;;2.32;100.00;100560.14;87363;278;136377;-70
2024/03/03 03:54:31;;;;;;;14.70;9.10;;;;;;;2.30;100.00;100556.70;87378;271;23176;-73
2024/03/03 03:56:34;;;;;;;16.80;8.80;;;;;;;2.28;100.00;100557.80;87456;267;136977;-72
2024/03/03 03:58:36;;;;;;;21.50;9.50;;;;;;;2.25;100.00;100556.63;87347;272;22642;-74
2024/03/03 04:00:38;;;;;;;13.90;10.10;;;;;;;2.24;100.00;100554.27;87504;271;138666;-71
2024/03/03 04:02:40;;;;;;;15.90;9.30;;;;;;;2.22;100.00;100553.92;87415;280;25083;-71
2024/03/03 04:04:42;;;;;;;14.60;8.10;;;;;;;2.22;100.00;100562.00;87439;271;138137;-72
2024/03/03 04:06:44;;;;;;;13.10;9.70;;;;;;;2.25;100.00;100553.69;87563;275;22568;-73
2024/03/03 04:08:45;;;;;;;13.40;7.80;;;;;;;2.31;100.00;100560.17;87492;274;138011;-72
2024/03/03 04:10:47;;;;;;;14.90;8.70;;;;;;;2.35;100.00;100561.04;87624;278;25129;-70
2024/03/03 04:12:49;;;;;;;12.10;8.40;;;;;;;2.36;100.00;100554.36;87423;267;136493;-71
2024/03/03 04:14:51;;;;;;;11.80;8.60;;;;;;;2.35;100.00;100558.45;87768;271;22846;-71
2024/03/03 04:16:52;;;;;;;13.10;9.50;;;;;;;2.32;100.00;100556.95;87436;279;136519;-70
2024/03/03 04:18:54;;;;;;;14.60;9.70;;;;;;;2.27;100.00;100561.56;87455;280;24020;-71
2024/03/03 04:20:56;;;;;;;11.80;9.40;;;;;;;2.23;100.00;100558.44;87437;267;150323;-72
2024/03/03 04:22:58;;;;;;;18.50;8.50;;;;;;;2.18;100.00;100554.45;87521;267;25220;-72
2024/03/03 04:24:59;;;;;;;12.20;8.30;;;;;;;2.19;100.00;100553.52;87730;276;137256;-74
2024/03/03 04:27:03;;;;;;;12.70;9.00;;;;;;;2.23;100.00;100559.33;88377;266;22566;-70
2024/03/03 04:29:05;;;;;;;17.00;8.20;;;;;;;2.25;100.00;100557.38;88161;267;136736;-77
2024/03/03 04:31:06;;;;;;;13.70;8.00;;;;;;;2.27;100.00;100558.21;87699;273;22592;-73
2024/03/03 04:33:09;;;;;;;16.30;8.10;;;;;;;2.28;100.00;100553.02;87622;282;138386;-71
2024/03/03 04:35:10;;;;;;;11.70;8.90;;;;;;;2.30;100.00;100559.23;87738;271;22528;-72
2024/03/03 04:37:12;;;;;;;16.70;8.20;;;;;;;2.28;100.00;100561.19;87654;278;135938;-71
2024/03/03 04:39:15;;;;;;;12.30;8.50;;;;;;;2.25;100.00;100564.57;87441;268;22598;-75
2024/03/03 04:41:18;;;;;;;14.00;7.80;;;;;;;2.22;100.00;100563.58;87434;278;136189;-72
2024/03/03 04:43:20;;;;;;;11.70;8.50;;;;;;;2.18;100.00;100562.50;87489;268;24017;-74
2024/03/03 04:45:22;;;;;;;12.60;9.60;;;;;;;2.15;100.00;100562.37;87537;275;137938;-72
2024/03/03 04:47:24;;;;;;;11.80;8.10;;;;;;;2.15;100.00;100564.89;87663;279;25092;-71
2024/03/03 04:49:26;;;;;;;14.60;8.00;;;;;;;2.17;100.00;100562.55;87521;279;138243;-69
2024/03/03 04:51:28;;;;;;;11.70;6.90;;;;;;;2.19;100.00;100565.58;87345;279;22584;-72
2024/03/03 04:53:29;;;;;;;14.60;8.90;;;;;;;2.20;100.00;100562.49;87380;267;136750;-73
2024/03/03 04:55:31;;;;;;;14.70;7.70;;;;;;;2.20;100.00;100564.60;87417;266;24113;-73
2024/03/03 04:57:33;;;;;;;12.90;8.10;;;;;;;2.19;100.00;100562.09;87413;271;137661;-72
2024/03/03 04:59:35;;;;;;;9.80;8.40;;;;;;;2.16;100.00;100563.34;87311;271;24012;-72
2024/03/03 05:01:40;;;;;;;10.50;8.00;;;;;;;2.14;100.00;100566.01;87412;271;135932;-71
2024/03/03 05:03:42;;;;;;;15.00;8.50;;;;;;;2.12;100.00;100566.84;87440;279;25293;-72
2024/03/03 05:05:44;;;;;;;16.20;8.30;;;;;;;2.09;100.00;100566.88;87359;268;137240;-77
2024/03/03 05:07:46;;;;;;;9.70;7.30;;;;;;;2.08;100.00;100567.52;87526;271;22581;-71
2024/03/03 05:09:48;;;;;;;9.60;6.70;;;;;;;2.10;100.00;100566.86;87527;271;138049;-72
2024/03/03 05:11:50;;;;;;;10.60;7.50;;;;;;;2.13;100.00;100573.91;87326;278;22580;-71
2024/03/03 05:13:51;;;;;;;10.20;7.30;;;;;;;2.15;100.00;100576.05;87046;280;136580;-74
2024/03/03 05:15:55;;;;;;;8.90;6.30;;;;;;;2.17;100.00;100575.06;87702;271;22568;-77
2024/03/03 05:17:57;;;;;;;19.30;7.70;;;;;;;2.16;100.00;100580.54;87563;270;136994;-72
2024/03/03 05:19:59;;;;;;;11.50;7.60;;;;;;;2.12;100.00;100577.89;87355;272;24164;-72
2024/03/03 05:22:00;;;;;;;14.10;7.80;;;;;;;2.10;100.00;100575.27;87426;271;136178;-71
2024/03/03 05:24:03;;;;;;;9.60;7.50;;;;;;;2.09;100.00;100581.80;87210;267;25282;-71
2024/03/03 05:26:05;;;;;;;10.90;6.90;;;;;;;2.07;100.00;100584.05;87371;271;22631;-71
2024/03/03 05:28:07;;;;;;;12.00;8.00;;;;;;;2.06;100.00;100577.38;87191;278;136506;-70
2024/03/03 05:30:10;;;;;;;13.90;6.10;;;;;;;2.06;100.00;100580.80;87258;262;25188;-72
2024/03/03 05:32:12;;;;;;;11.90;6.40;;;;;;;2.08;100.00;100588.16;87410;273;138524;-74
2024/03/03 05:34:15;;;;;;;7.50;6.30;;;;;;;2.11;100.00;100579.92;87483;264;24039;-73
2024/03/03 05:36:17;;;;;;;14.30;7.10;;;;;;;2.14;100.00;100575.46;87474;271;136742;-71
2024/03/03 05:38:18;;;;;;;11.50;7.30;;;;;;;2.19;100.00;100575.05;87585;271;23377;-73
2024/03/03 05:40:20;;;;;;;12.10;6.70;;;;;;;2.20;100.00;100571.63;87499;269;136441;-75
2024/03/03 05:42:22;;;;;;;10.40;6.80;;;;;;;2.21;100.00;100582.44;87431;271;24233;-73
2024/03/03 05:44:24;;;;;;;7.60;6.30;;;;;;;2.21;100.00;100578.73;87384;266;136599;-71
2024/03/03 05:46:26;;;;;;;11.40;7.50;;;;;;;2.21;100.00;100580.79;87735;274;25236;-72
2024/03/03 05:48:28;;;;;;;7.70;6.60;;;;;;;2.21;99.97;100588.06;87596;266;136055;-70
2024/03/03 05:50:30;;;;;;;11.40;6.40;;;;;;;2.20;99.70;100582.85;87316;277;22556;-71
2024/03/03 05:52:32;;;;;;;9.90;5.10;;;;;;;2.22;99.68;100583.34;87486;270;136647;-72
2024/03/03 05:54:33;;;;;;;8.00;5.30;;;;;;;2.27;98.87;100589.09;87448;272;22602;-72
2024/03/03 05:56:35;;;;;;;7.60;6.30;;;;;;;2.30;98.26;100581.00;87684;270;137102;-72
2024/03/03 05:58:39;;;;;;;7.20;5.80;;;;;;;2.31;98.47;100578.90;87968;271;22907;-72
2024/03/03 06:00:41;;;;;;;9.80;6.70;;;;;;;2.32;98.33;100581.29;87616;278;137028;-73
2024/03/03 06:02:43;;;;;;;10.20;6.40;;;;;;;2.32;98.37;100576.40;87637;266;22577;-72
2024/03/03 06:04:45;;;;;;;8.40;6.10;;;;;;;2.33;98.16;100574.56;87620;277;136255;-71
2024/03/03 06:06:47;;;;;;;8.20;5.90;;;;;;;2.34;98.21;100583.21;87683;271;22551;-70
2024/03/03 06:08:50;;;;;;;6.90;6.00;;;;;;;2.36;97.58;100576.96;87572;274;135606;-72
2024/03/03 06:10:52;;;;;;;8.90;5.60;;;;;;;2.37;97.66;100581.60;87661;269;23348;-70
2024/03/03 06:12:54;;;;;;;8.60;5.50;;;;;;;2.41;96.96;100588.08;87553;267;136353;-70
2024/03/03 06:14:55;;;;;;;7.80;5.00;;;;;;;2.45;96.37;100593.16;87158;277;25145;-71
2024/03/03 06:16:57;;;;;;;6.30;5.10;;;;;;;2.49;95.85;100589.69;87202;266;136254;-71
2024/03/03 06:18:59;;;;;;;8.10;5.80;;;;;;;2.51;95.48;100584.63;87622;270;25135;-72
2024/03/03 06:21:01;;;;;;;8.50;5.40;;;;;;;2.51;95.55;100588.68;87409;279;136415;-74
2024/03/03 06:23:03;;;;;;;7.20;5.20;;;;;;;2.50;95.09;100603.33;87516;268;22600;-72
2024/03/03 06:25:08;;;;;;;8.70;6.50;;;;;;;2.48;94.45;100599.75;87098;274;137385;-71
2024/03/03 06:27:12;;;;;;;7.40;5.60;;;;;;;2.48;94.59;100589.42;87974;275;25188;-75
2024/03/03 06:29:14;;;;;;;9.00;4.90;;;;;;;2.47;94.70;100590.91;87647;274;135885;-72
2024/03/03 06:31:16;;;;;;;7.10;4.90;;;;;;;2.49;94.75;100587.42;87745;267;22559;-74
2024/03/03 06:33:18;;;;;;;6.60;4.80;;;;;;;2.53;95.02;100591.66;87505;263;137161;-70
2024/03/03 06:35:20;;;;;;;5.90;4.70;;;;;;;2.60;94.48;100592.33;87684;287;22715;-71
2024/03/03 06:37:21;;;;;;;4.70;3.80;;;;;;;2.70;93.91;100599.89;87067;270;136435;-72
2024/03/03 06:39:23;;;;;;;6.40;3.90;;;;;;;2.81;93.38;100596.15;87678;267;22595;-74
2024/03/03 06:41:25;;;;;;;5.50;4.00;;;;;;;2.92;92.76;100588.83;87474;278;137522;-75
2024/03/03 06:43:27;;;;;;;7.60;3.60;;;;;;;3.02;92.24;100588.86;87599;270;24268;-75
2024/03/03 06:45:29;;;;;;;6.10;4.00;;;;;;;3.14;92.02;100588.31;87515;278;135576;-77
2024/03/03 06:47:32;;;;;;;5.00;4.10;;;;;;;3.27;90.37;100590.73;87520;270;25129;-72
2024/03/03 06:49:34;;;;;;;4.50;3.80;;;;;;;3.39;89.22;100598.16;87419;277;135918;-71
2024/03/03 06:51:36;;;;;;;10.40;3.90;;;;;;;3.46;87.09;100597.11;87287;270;25133;-72
2024/03/03 06:53:39;;;;;;;4.40;3.60;;;;;;;3.46;86.10;100590.30;87509;276;135904;-74
2024/03/03 06:55:40;;;;;;;5.90;3.10;;;;;;;3.44;86.18;100603.30;87748;270;22558;-74
2024/03/03 06:57:42;;;;;;;5.50;3.70;;;;;;;3.47;85.42;100615.88;87377;266;136732;-71
2024/03/03 06:59:44;;;;;;;4.10;3.00;;;;;;;3.48;85.32;100600.14;87243;271;22558;-73
2024/03/03 07:01:46;;;;;;;4.80;3.30;;;;;;;3.53;85.26;100597.05;87437;272;135608;-70
2024/03/03 07:05:50;;;;;;;4.40;3.10;;;;;;;3.63;82.51;100594.55;87174;277;140186;-72
2024/03/03 07:07:52;;;;;;;3.30;2.80;;;;;;;3.62;82.43;100598.03;87616;277;22555;-73
2024/03/03 07:09:53;;;;;;;3.90;3.60;;;;;;;3.60;82.32;100594.71;87526;278;135738;-72
2024/03/03 07:11:56;;;;;;;5.30;3.30;;;;;;;3.57;82.38;100594.58;87703;278;24010;-72
2024/03/03 07:13:59;;;;;;;3.80;3.20;;;;;;;3.59;82.12;100608.84;87247;276;135319;-77
2024/03/03 07:16:00;;;;;;;4.90;3.30;;;;;;;3.59;82.06;100600.92;87535;271;25301;-71
2024/03/03 07:18:04;;;;;;;4.60;3.00;;;;;;;3.58;81.82;100611.77;87635;269;22541;-73
2024/03/03 07:20:07;;;;;;;7.40;3.30;;;;;;;3.59;81.84;100605.98;87257;270;136139;-78
2024/03/03 07:22:09;;;;;;;5.90;3.40;;;;;;;3.63;81.82;100609.18;87486;269;22569;-73
2024/03/03 07:24:11;;;;;;;7.50;3.40;;;;;;;3.67;81.83;100612.15;87480;278;135951;-71
2024/03/03 07:26:13;;;;;;;5.40;3.30;;;;;;;3.70;81.57;100607.48;87565;270;22568;-72
2024/03/03 07:28:15;;;;;;;3.30;3.10;;;;;;;3.71;81.34;100619.02;87485;279;137935;-70
2024/03/03 07:30:17;;;;;;;5.70;3.50;;;;;;;3.70;81.32;100616.80;87606;269;23375;-72
2024/03/03 07:32:23;;;;;;;4.20;3.90;;;;;;;3.69;81.33;100605.64;87487;277;137283;-73
2024/03/03 07:36:38;;;;;;;10.30;2.90;;;;;;;3.47;81.51;100613.07;85193;300;602817;-69
2024/03/03 07:38:41;;;;;;;8.70;3.30;;;;;;;3.42;81.64;100602.09;87366;281;22611;-77
2024/03/03 07:40:45;;;;;;;3.80;3.50;;;;;;;3.38;81.90;100607.36;88798;274;134634;-77
2024/03/03 07:42:49;;;;;;;4.40;3.20;;;;;;;3.36;82.10;100609.60;87851;275;22607;-78
2024/03/03 07:44:50;;;;;;;5.90;2.90;;;;;;;3.37;82.10;100615.73;87571;275;136147;-77
2024/03/03 07:46:52;;;;;;;3.10;2.60;;;;;;;3.35;81.88;100616.61;87553;282;22844;-79
2024/03/03 07:48:54;;;;;;;4.80;3.10;;;;;;;3.36;81.90;100609.33;87427;282;136063;-79
2024/03/03 07:50:56;;;;;;;4.10;3.20;;;;;;;3.37;82.00;100604.80;86976;279;736383;-78
2024/03/03 07:52:57;;;;;;;4.00;3.60;;;;;;;3.37;82.17;100606.39;87433;274;136265;-78
2024/03/03 07:54:59;;;;;;;4.00;3.30;;;;;;;3.38;82.34;100610.89;87787;281;23649;-82
2024/03/03 07:57:01;;;;;;;3.20;2.90;;;;;;;3.39;82.36;100618.31;87566;267;135211;-83
2024/03/03 07:59:05;;;;;;;3.80;3.50;;;;;;;3.41;82.27;100604.05;87854;281;22575;-82
2024/03/03 08:01:07;;;;;;;4.40;3.30;;;;;;;3.44;82.42;100599.05;87947;277;135658;-79
2024/03/03 08:03:09;;;;;;;4.10;3.10;;;;;;;3.48;82.51;100608.77;87923;269;24174;-76
2024/03/03 08:05:11;;;;;;;5.60;3.80;;;;;;;3.44;81.43;100611.05;87473;274;136180;-78
2024/03/03 08:07:12;;;;;;;5.50;2.70;;;;;;;3.34;81.53;100605.77;87553;277;25284;-82
2024/03/03 08:09:14;;;;;;;3.90;2.80;;;;;;;3.27;82.60;100603.89;87929;271;136394;-83
2024/03/03 08:11:16;;;;;;;5.90;2.60;;;;;;;3.28;82.98;100614.48;88029;269;22735;-78
2024/03/03 08:13:18;;;;;;;3.10;2.60;;;;;;;3.36;82.37;100609.66;87861;274;135254;-76
2024/03/03 08:15:21;;;;;;;3.00;2.20;;;;;;;3.43;82.27;100603.23;87690;273;23174;-79
2024/03/03 08:17:23;;;;;;;4.70;3.00;;;;;;;3.50;82.21;100612.43;87684;273;135302;-79
2024/03/03 08:19:27;;;;;;;5.10;2.90;;;;;;;3.57;81.53;100623.23;88051;277;23351;-76
2024/03/03 08:21:30;;;;;;;12.30;3.90;;;;;;;3.61;80.51;100634.35;87197;281;135339;-80
2024/03/03 08:23:32;;;;;;;4.60;3.10;;;;;;;3.60;79.77;100620.30;88055;273;22569;-79
2024/03/03 08:25:34;;;;;;;4.20;3.10;;;;;;;3.58;79.96;100623.52;87776;273;136444;-79
2024/03/03 08:27:35;;;;;;;4.20;2.90;;;;;;;3.57;80.03;100630.64;87782;265;23174;-78
2024/03/03 08:29:37;;;;;;;5.00;3.30;;;;;;;3.56;80.20;100623.55;87681;269;135488;-79
2024/03/03 08:31:41;;;;;;;3.50;3.00;;;;;;;3.54;80.32;100619.98;87799;281;22564;-79
2024/03/03 08:33:43;;;;;;;4.40;3.30;;;;;;;3.53;80.02;100613.77;87484;274;135655;-77
2024/03/03 08:35:45;;;;;;;3.40;3.10;;;;;;;3.53;80.52;100610.27;87832;273;22513;-79
2024/03/03 08:37:47;;;;;;;2.80;2.50;;;;;;;3.57;80.81;100608.81;87577;273;135878;-79
2024/03/03 08:39:48;;;;;;;7.70;3.40;;;;;;;3.64;80.83;100614.91;87717;281;23334;-80
2024/03/03 08:41:50;;;;;;;6.90;3.00;;;;;;;3.70;80.48;100617.55;87554;281;135394;-77
2024/03/03 08:43:52;;;;;;;6.20;3.20;;;;;;;3.74;80.69;100618.41;87562;273;22567;-78
2024/03/03 08:45:53;;;;;;;3.50;3.00;;;;;;;3.76;80.25;100616.32;87330;274;135569;-80
2024/03/03 08:47:55;;;;;;;3.20;2.80;;;;;;;3.77;80.40;100610.58;87340;273;24059;-79
2024/03/03 08:49:58;;;;;;;4.30;2.70;;;;;;;3.80;80.46;100613.66;86997;274;136318;-79
2024/03/03 08:52:05;;;;;;;5.90;3.30;;;;;;;3.85;80.54;100607.42;87566;274;22562;-80
2024/03/03 08:54:08;;;;;;;6.50;3.90;;;;;;;3.90;80.49;100607.65;87485;280;26289;-78
2024/03/03 08:56:09;;;;;;;8.10;3.60;;;;;;;3.95;80.61;100605.27;86982;280;135637;-81
2024/03/03 08:58:11;;;;;;;3.40;3.00;;;;;;;4.00;80.17;100615.16;87592;274;24261;-80
2024/03/03 09:00:14;;;;;;;8.10;3.20;;;;;;;4.06;78.85;100628.49;87522;278;135405;-78
2024/03/03 09:02:15;;;;;;;2.70;2.60;;;;;;;4.09;77.45;100620.52;87672;274;22580;-79
2024/03/03 09:04:17;;;;;;;5.70;2.50;;;;;;;4.06;77.33;100630.84;87543;278;136660;-83
2024/03/03 09:06:19;;;;;;;3.10;2.40;;;;;;;4.05;77.26;100631.45;87421;282;22562;-79
2024/03/03 09:08:21;;;;;;;3.00;2.80;;;;;;;4.03;76.19;100630.37;87488;271;136775;-79
2024/03/03 09:10:22;;;;;;;5.20;3.10;;;;;;;3.97;76.75;100628.66;87436;283;22582;-75
2024/03/03 09:12:24;;;;;;;9.40;3.20;;;;;;;3.95;76.87;100635.46;87608;270;136519;-75
2024/03/03 09:14:26;;;;;;;5.70;3.50;;;;;;;3.96;76.87;100646.13;87440;278;22566;-78
2024/03/03 09:16:28;;;;;;;6.10;2.90;;;;;;;3.97;76.67;100637.83;87316;270;136752;-77
2024/03/03 09:18:30;;;;;;;4.40;3.00;;;;;;;3.99;76.83;100627.11;87264;275;25127;-75
2024/03/03 09:20:31;;;;;;;8.00;3.30;;;;;;;4.01;76.75;100638.45;87298;274;135242;-74
2024/03/03 09:22:33;;;;;;;4.20;2.90;;;;;;;4.05;76.69;100643.55;87394;270;27396;-75
2024/03/03 09:24:42;;;;;;;6.40;2.40;;;;;;;4.09;76.18;100636.36;87344;282;136707;-73
2024/03/03 09:26:44;;;;;;;4.10;2.90;;;;;;;4.09;75.96;100633.00;87211;275;22578;-74
2024/03/03 09:28:46;;;;;;;4.90;3.10;;;;;;;4.08;75.58;100636.02;87302;270;135359;-75
2024/03/03 09:30:48;;;;;;;5.00;2.60;;;;;;;4.03;75.49;100636.69;87497;270;22588;-74